createdAt,value
2019-06-27T00:01:01.345Z,22.80
2019-06-27T00:03:27.753Z,22.82
2019-06-27T00:05:54.186Z,22.82
2019-06-27T00:08:20.484Z,22.73
2019-06-27T00:10:48.038Z,22.76
2019-06-27T00:13:13.153Z,22.72
2019-06-27T00:15:39.529Z,22.76
2019-06-27T00:18:05.895Z,22.72
2019-06-27T00:20:32.249Z,22.71
2019-06-27T00:22:58.579Z,22.67
2019-06-27T00:25:24.936Z,22.70
2019-06-27T00:27:51.340Z,22.65
2019-06-27T00:30:17.693Z,22.64
2019-06-27T00:32:44.111Z,22.66
2019-06-27T00:35:10.483Z,22.62
2019-06-27T00:37:36.893Z,22.62
2019-06-27T00:40:03.252Z,22.53
2019-06-27T00:42:29.598Z,22.62
2019-06-27T00:44:55.979Z,22.62
2019-06-27T00:47:22.339Z,22.61
2019-06-27T00:49:48.687Z,22.62
2019-06-27T00:52:15.106Z,22.62
2019-06-27T00:54:41.448Z,22.56
2019-06-27T00:57:13.991Z,22.61
2019-06-27T00:59:34.209Z,22.60
2019-06-27T01:02:00.556Z,22.53
2019-06-27T01:04:26.879Z,22.55
2019-06-27T01:06:53.386Z,22.50
2019-06-27T01:09:19.841Z,22.52
2019-06-27T01:11:46.229Z,22.54
2019-06-27T01:14:12.625Z,22.49
2019-06-27T01:16:38.999Z,22.53
2019-06-27T01:19:05.344Z,22.36
2019-06-27T01:21:31.744Z,22.43
2019-06-27T01:23:58.065Z,22.47
2019-06-27T01:26:24.431Z,22.48
2019-06-27T01:28:50.835Z,22.48
2019-06-27T01:31:17.137Z,22.42
2019-06-27T01:33:43.519Z,22.34
2019-06-27T01:36:09.862Z,22.41
2019-06-27T01:38:36.192Z,22.37
2019-06-27T01:41:02.622Z,22.33
2019-06-27T01:43:28.925Z,22.37
2019-06-27T01:45:55.273Z,22.38
2019-06-27T01:48:21.615Z,22.26
2019-06-27T01:50:48.003Z,22.36
2019-06-27T01:53:14.406Z,22.25
2019-06-27T01:55:40.773Z,22.35
2019-06-27T01:58:07.109Z,22.23
2019-06-27T02:00:33.453Z,22.33
2019-06-27T02:02:59.895Z,22.23
2019-06-27T02:05:26.207Z,22.32
2019-06-27T02:07:52.547Z,22.34
2019-06-27T02:10:18.959Z,22.32
2019-06-27T02:12:45.407Z,22.26
2019-06-27T02:15:11.745Z,22.33
2019-06-27T02:17:38.147Z,22.26
2019-06-27T02:20:04.544Z,22.26
2019-06-27T02:22:30.766Z,22.25
2019-06-27T02:24:57.153Z,22.29
2019-06-27T02:27:23.598Z,22.21
2019-06-27T02:29:49.882Z,22.22
2019-06-27T02:34:42.601Z,22.16
2019-06-27T02:37:08.979Z,22.19
2019-06-27T02:39:35.343Z,22.21
2019-06-27T02:42:01.726Z,22.14
2019-06-27T02:44:28.041Z,22.13
2019-06-27T02:46:54.450Z,22.08
2019-06-27T02:49:20.783Z,22.10
2019-06-27T02:51:47.133Z,22.10
2019-06-27T02:54:13.542Z,22.10
2019-06-27T02:56:39.872Z,22.01
2019-06-27T02:59:06.220Z,22.11
2019-06-27T03:01:32.577Z,21.89
2019-06-27T03:03:58.912Z,22.06
2019-06-27T03:06:28.056Z,22.06
2019-06-27T03:08:54.433Z,22.08
2019-06-27T03:11:20.824Z,22.16
2019-06-27T03:13:47.340Z,22.12
2019-06-27T03:16:13.622Z,22.09
2019-06-27T03:18:40.016Z,22.14
2019-06-27T03:21:06.305Z,22.14
2019-06-27T03:23:32.733Z,22.24
2019-06-27T03:25:59.061Z,22.23
2019-06-27T03:28:25.474Z,22.34
2019-06-27T03:30:51.803Z,22.40
2019-06-27T03:33:18.212Z,22.43
2019-06-27T03:35:44.576Z,22.47
2019-06-27T03:38:11.100Z,22.50
2019-06-27T03:40:37.511Z,22.57
2019-06-27T03:43:03.810Z,22.57
2019-06-27T03:45:30.168Z,22.63
2019-06-27T03:47:56.517Z,22.66
2019-06-27T03:50:22.854Z,22.82
2019-06-27T03:52:49.264Z,22.72
2019-06-27T03:55:15.718Z,22.77
2019-06-27T03:57:45.099Z,22.81
2019-06-27T04:00:08.461Z,22.88
2019-06-27T04:02:34.897Z,22.82
2019-06-27T04:05:01.267Z,22.81
2019-06-27T04:07:27.662Z,22.86
2019-06-27T04:09:54.022Z,22.98
2019-06-27T04:12:20.356Z,22.94
2019-06-27T04:14:46.712Z,22.96
2019-06-27T04:17:13.047Z,22.98
2019-06-27T04:19:39.433Z,23.02
2019-06-27T04:22:05.784Z,23.01
2019-06-27T04:24:32.174Z,23.08
2019-06-27T04:26:58.509Z,23.13
2019-06-27T04:29:33.381Z,23.18
2019-06-27T04:31:51.261Z,23.23
2019-06-27T04:34:19.802Z,23.27
2019-06-27T04:36:43.948Z,23.34
2019-06-27T04:39:10.353Z,23.43
2019-06-27T04:41:36.669Z,23.40
2019-06-27T04:44:02.991Z,23.42
2019-06-27T04:46:29.352Z,23.50
2019-06-27T04:48:55.711Z,23.44
2019-06-27T04:51:24.472Z,23.49
2019-06-27T04:53:48.459Z,23.49
2019-06-27T04:56:14.763Z,23.53
2019-06-27T04:58:41.092Z,23.52
2019-06-27T05:01:07.437Z,23.55
2019-06-27T05:03:33.863Z,23.52
2019-06-27T05:06:00.180Z,23.52
2019-06-27T05:08:26.519Z,23.61
2019-06-27T05:10:52.861Z,23.64
2019-06-27T05:13:19.201Z,23.68
2019-06-27T05:15:45.595Z,23.70
2019-06-27T05:18:11.947Z,23.71
2019-06-27T05:20:38.278Z,23.70
2019-06-27T05:23:04.661Z,23.76
2019-06-27T05:25:31.043Z,23.77
2019-06-27T05:27:57.467Z,23.81
2019-06-27T05:30:23.743Z,23.82
2019-06-27T05:32:50.135Z,23.87
2019-06-27T05:35:16.492Z,23.97
2019-06-27T05:37:42.827Z,23.94
2019-06-27T05:40:09.285Z,23.97
2019-06-27T05:42:35.576Z,24.01
2019-06-27T05:47:28.299Z,24.12
2019-06-27T05:49:54.630Z,24.12
2019-06-27T05:52:21.004Z,24.16
2019-06-27T05:54:47.349Z,24.24
2019-06-27T05:57:13.699Z,24.29
2019-06-27T05:59:40.100Z,24.21
2019-06-27T06:02:06.385Z,24.30
2019-06-27T06:04:32.842Z,24.34
2019-06-27T06:06:59.198Z,24.38
2019-06-27T06:09:25.547Z,24.42
2019-06-27T06:11:51.907Z,24.44
2019-06-27T06:14:18.266Z,24.53
2019-06-27T06:16:44.595Z,24.62
2019-06-27T06:21:37.289Z,24.69
2019-06-27T06:24:03.650Z,24.75
2019-06-27T06:26:30.046Z,24.76
2019-06-27T06:28:56.373Z,24.87
2019-06-27T06:31:23.473Z,24.83
2019-06-27T06:33:49.651Z,24.91
2019-06-27T06:36:15.979Z,24.93
2019-06-27T06:38:42.312Z,24.98
2019-06-27T06:41:08.703Z,24.95
2019-06-27T06:43:35.070Z,24.97
2019-06-27T06:46:01.419Z,25.04
2019-06-27T06:48:27.817Z,25.06
2019-06-27T06:50:54.137Z,25.13
2019-06-27T06:55:46.847Z,25.24
2019-06-27T06:58:13.179Z,25.21
2019-06-27T07:00:39.544Z,25.30
2019-06-27T07:03:05.869Z,25.33
2019-06-27T07:05:32.236Z,25.44
2019-06-27T07:07:58.568Z,25.48
2019-06-27T07:10:24.927Z,25.56
2019-06-27T07:12:51.286Z,25.58
2019-06-27T07:15:17.681Z,25.60
2019-06-27T07:17:44.025Z,25.63
2019-06-27T07:20:10.403Z,25.64
2019-06-27T07:22:36.712Z,25.73
2019-06-27T07:25:03.063Z,25.76
2019-06-27T07:29:55.876Z,25.72
2019-06-27T07:32:22.260Z,25.77
2019-06-27T07:34:48.556Z,25.91
2019-06-27T07:37:14.918Z,25.89
2019-06-27T07:39:41.339Z,25.84
2019-06-27T07:42:07.707Z,25.89
2019-06-27T07:44:33.987Z,25.92
2019-06-27T07:47:00.340Z,25.97
2019-06-27T07:49:26.668Z,25.92
2019-06-27T07:51:52.999Z,25.87
2019-06-27T07:54:19.395Z,25.93
2019-06-27T07:56:46.485Z,25.98
2019-06-27T07:59:12.211Z,25.84
2019-06-27T08:01:38.460Z,25.87
2019-06-27T08:04:04.930Z,25.91
2019-06-27T08:06:31.358Z,25.87
2019-06-27T08:08:57.769Z,25.92
2019-06-27T08:11:24.054Z,25.86
2019-06-27T08:13:50.512Z,25.82
2019-06-27T08:16:16.941Z,25.87
2019-06-27T08:18:43.265Z,25.83
2019-06-27T08:21:09.611Z,25.87
2019-06-27T08:23:41.656Z,25.86
2019-06-27T08:26:02.351Z,25.90
2019-06-27T08:28:28.756Z,25.81
2019-06-27T08:30:55.032Z,25.80
2019-06-27T08:33:21.402Z,25.80
2019-06-27T08:35:47.750Z,25.80
2019-06-27T08:38:14.074Z,25.82
2019-06-27T08:40:40.514Z,25.76
2019-06-27T08:43:06.805Z,25.89
2019-06-27T08:45:33.155Z,25.83
2019-06-27T08:47:59.460Z,25.77
2019-06-27T08:50:25.790Z,25.80
2019-06-27T08:52:52.214Z,25.73
2019-06-27T08:55:18.579Z,25.74
2019-06-27T08:57:44.882Z,25.82
2019-06-27T09:00:11.253Z,25.79
2019-06-27T09:02:37.551Z,25.78
2019-06-27T09:05:03.879Z,25.61
2019-06-27T09:07:30.254Z,25.74
2019-06-27T09:09:56.609Z,25.63
2019-06-27T09:12:22.962Z,25.67
2019-06-27T09:14:49.293Z,25.62
2019-06-27T09:17:15.642Z,25.51
2019-06-27T09:19:41.996Z,25.59
2019-06-27T09:22:08.327Z,25.47
2019-06-27T09:24:34.680Z,25.45
2019-06-27T09:27:01.128Z,25.54
2019-06-27T09:29:27.443Z,25.63
2019-06-27T09:31:53.784Z,25.57
2019-06-27T09:34:21.455Z,25.60
2019-06-27T09:36:46.480Z,25.57
2019-06-27T09:39:12.863Z,25.54
2019-06-27T09:41:39.218Z,25.53
2019-06-27T09:44:05.540Z,25.52
2019-06-27T09:46:31.912Z,25.59
2019-06-27T09:48:58.244Z,25.49
2019-06-27T09:51:24.639Z,25.44
2019-06-27T09:53:50.981Z,25.36
2019-06-27T09:56:17.336Z,25.51
2019-06-27T09:58:43.675Z,25.45
2019-06-27T10:01:10.025Z,25.36
2019-06-27T10:03:36.369Z,25.44
2019-06-27T10:06:02.841Z,25.28
2019-06-27T10:08:29.141Z,25.30
2019-06-27T10:10:55.878Z,25.28
2019-06-27T10:13:21.987Z,25.21
2019-06-27T10:15:48.346Z,25.18
2019-06-27T10:18:14.711Z,25.35
2019-06-27T10:20:41.071Z,25.33
2019-06-27T10:23:07.433Z,25.24
2019-06-27T10:25:33.830Z,25.29
2019-06-27T10:28:00.288Z,25.13
2019-06-27T10:30:26.572Z,25.07
2019-06-27T10:32:59.405Z,25.22
2019-06-27T10:35:19.178Z,25.16
2019-06-27T10:37:45.637Z,25.12
2019-06-27T10:40:11.919Z,25.23
2019-06-27T10:42:38.305Z,25.07
2019-06-27T10:45:04.648Z,25.27
2019-06-27T10:47:30.983Z,25.20
2019-06-27T10:49:57.311Z,25.28
2019-06-27T10:52:23.763Z,25.25
2019-06-27T10:54:50.176Z,25.17
2019-06-27T10:57:16.543Z,25.19
2019-06-27T10:59:42.900Z,25.29
2019-06-27T11:02:09.212Z,25.30
2019-06-27T11:04:35.580Z,25.16
2019-06-27T11:07:01.982Z,25.19
2019-06-27T11:09:28.335Z,25.08
2019-06-27T11:11:54.689Z,25.00
2019-06-27T11:14:21.139Z,25.15
2019-06-27T11:16:47.556Z,25.02
2019-06-27T11:19:13.915Z,24.93
2019-06-27T11:21:40.306Z,25.01
2019-06-27T11:24:06.709Z,25.07
2019-06-27T11:26:33.034Z,25.02
2019-06-27T11:28:59.488Z,24.93
2019-06-27T11:31:25.844Z,24.84
2019-06-27T11:33:52.172Z,24.84
2019-06-27T11:36:18.524Z,24.78
2019-06-27T11:38:44.876Z,24.93
2019-06-27T11:41:11.211Z,24.93
2019-06-27T11:43:37.657Z,24.78
2019-06-27T11:46:03.999Z,24.83
2019-06-27T11:48:30.337Z,24.80
2019-06-27T11:50:56.716Z,24.80
2019-06-27T11:53:22.983Z,24.87
2019-06-27T11:55:49.330Z,24.88
2019-06-27T11:58:15.662Z,24.83
2019-06-27T12:00:42.591Z,24.75
2019-06-27T12:03:08.787Z,24.80
2019-06-27T12:05:35.207Z,24.71
2019-06-27T12:08:01.597Z,24.92
2019-06-27T12:10:27.967Z,24.91
2019-06-27T12:12:54.317Z,24.70
2019-06-27T12:15:20.666Z,24.61
2019-06-27T12:17:47.003Z,24.58
2019-06-27T12:20:13.402Z,24.57
2019-06-27T12:22:39.711Z,24.53
2019-06-27T12:25:06.057Z,24.60
2019-06-27T12:27:32.415Z,24.50
2019-06-27T12:29:58.743Z,24.50
2019-06-27T12:32:25.077Z,24.48
2019-06-27T12:34:51.446Z,24.44
2019-06-27T12:37:17.780Z,24.50
2019-06-27T12:39:44.192Z,24.47
2019-06-27T12:42:10.550Z,24.55
2019-06-27T12:44:36.892Z,24.40
2019-06-27T12:47:03.398Z,24.49
2019-06-27T12:49:44.838Z,24.51
2019-06-27T12:51:56.089Z,24.40
2019-06-27T12:54:22.491Z,24.45
2019-06-27T12:59:15.160Z,24.39
2019-06-27T13:01:41.535Z,24.46
2019-06-27T13:04:22.332Z,24.35
2019-06-27T13:06:34.246Z,24.48
2019-06-27T13:09:00.631Z,24.61
2019-06-27T13:11:27.039Z,24.68
2019-06-27T13:13:53.397Z,24.56
2019-06-27T13:16:19.735Z,24.54
2019-06-27T13:18:46.072Z,24.62
2019-06-27T13:21:12.469Z,24.68
2019-06-27T13:23:38.796Z,24.60
2019-06-27T13:26:05.123Z,24.69
2019-06-27T13:28:31.531Z,24.64
2019-06-27T13:33:24.237Z,24.75
2019-06-27T13:35:50.541Z,24.70
2019-06-27T13:38:17.042Z,24.74
2019-06-27T13:40:43.339Z,24.68
2019-06-27T13:43:09.738Z,24.60
2019-06-27T13:45:36.087Z,24.80
2019-06-27T13:48:02.430Z,24.83
2019-06-27T13:50:28.765Z,24.88
2019-06-27T13:52:55.111Z,24.76
2019-06-27T13:55:23.876Z,24.82
2019-06-27T13:57:47.930Z,24.91
2019-06-27T14:00:14.340Z,24.97
2019-06-27T14:02:40.620Z,24.95
2019-06-27T14:07:33.360Z,24.89
2019-06-27T14:09:59.965Z,24.87
2019-06-27T14:12:26.251Z,24.72
2019-06-27T14:14:59.918Z,24.85
2019-06-27T14:17:19.017Z,24.79
2019-06-27T14:19:45.426Z,24.77
2019-06-27T14:22:15.241Z,24.83
2019-06-27T14:24:38.168Z,24.75
2019-06-27T14:27:04.906Z,24.85
2019-06-27T14:29:30.960Z,24.70
2019-06-27T14:31:57.299Z,24.72
2019-06-27T14:34:25.689Z,24.65
2019-06-27T14:36:54.345Z,24.82
2019-06-27T14:39:18.369Z,24.74
2019-06-27T14:41:44.763Z,24.83
2019-06-27T14:44:11.082Z,24.77
2019-06-27T14:46:37.685Z,24.76
2019-06-27T14:49:03.736Z,24.69
2019-06-27T14:51:30.188Z,24.84
2019-06-27T14:53:56.522Z,24.86
2019-06-27T14:56:22.892Z,24.80
2019-06-27T14:58:49.243Z,24.75
2019-06-27T15:01:15.581Z,24.75
2019-06-27T15:03:42.010Z,24.85
2019-06-27T15:06:12.108Z,24.93
2019-06-27T15:08:34.797Z,24.74
2019-06-27T15:11:01.095Z,24.85
2019-06-27T15:13:27.445Z,24.82
2019-06-27T15:16:10.343Z,24.86
2019-06-27T15:18:20.166Z,24.77
2019-06-27T15:20:46.497Z,24.59
2019-06-27T15:23:12.809Z,24.68
2019-06-27T15:25:39.183Z,24.70
2019-06-27T15:28:05.511Z,24.63
2019-06-27T15:30:31.846Z,24.64
2019-06-27T15:32:58.170Z,24.56
2019-06-27T15:35:24.517Z,24.68
2019-06-27T15:37:50.873Z,24.80
2019-06-27T15:40:17.280Z,24.62
2019-06-27T15:42:43.542Z,24.70
2019-06-27T15:45:09.918Z,24.60
2019-06-27T15:50:02.652Z,24.57
2019-06-27T15:52:28.918Z,24.57
2019-06-27T15:54:55.257Z,24.59
2019-06-27T15:57:21.582Z,24.51
2019-06-27T15:59:47.932Z,24.57
2019-06-27T16:02:14.265Z,24.40
2019-06-27T16:04:40.622Z,24.51
2019-06-27T16:07:07.067Z,24.50
2019-06-27T16:09:33.410Z,24.43
2019-06-27T16:11:59.798Z,24.49
2019-06-27T16:14:26.120Z,24.39
2019-06-27T16:16:52.466Z,24.42
2019-06-27T16:19:18.781Z,24.44
2019-06-27T16:21:45.139Z,24.29
2019-06-27T16:24:11.463Z,24.35
2019-06-27T16:26:37.891Z,24.33
2019-06-27T16:29:04.209Z,24.34
2019-06-27T16:31:30.665Z,24.36
2019-06-27T16:33:57.088Z,24.31
2019-06-27T16:36:26.033Z,24.35
2019-06-27T16:38:49.760Z,24.25
2019-06-27T16:41:16.135Z,24.26
2019-06-27T16:46:08.792Z,24.25
2019-06-27T16:48:35.140Z,24.23
2019-06-27T16:51:01.532Z,24.28
2019-06-27T16:53:27.862Z,24.23
2019-06-27T16:55:54.229Z,24.14
2019-06-27T16:58:20.562Z,24.24
2019-06-27T17:00:46.901Z,24.21
2019-06-27T17:03:13.319Z,24.24
2019-06-27T17:05:39.599Z,24.27
2019-06-27T17:08:05.943Z,24.13
2019-06-27T17:10:32.313Z,24.18
2019-06-27T17:12:58.771Z,24.06
2019-06-27T17:15:25.098Z,24.00
2019-06-27T17:20:17.755Z,24.08
2019-06-27T17:22:44.151Z,23.90
2019-06-27T17:25:10.485Z,24.00
2019-06-27T17:27:36.833Z,23.98
2019-06-27T17:30:03.168Z,24.09
2019-06-27T17:32:29.494Z,24.01
2019-06-27T17:34:55.839Z,24.00
2019-06-27T17:37:22.264Z,23.99
2019-06-27T17:39:48.667Z,24.06
2019-06-27T17:42:14.902Z,24.03
2019-06-27T17:44:41.246Z,24.12
2019-06-27T17:47:10.358Z,24.02
2019-06-27T17:49:36.696Z,23.98
2019-06-27T17:52:03.042Z,24.06
2019-06-27T17:54:29.400Z,24.12
2019-06-27T17:56:55.786Z,24.12
2019-06-27T17:59:22.120Z,24.08
2019-06-27T18:01:48.438Z,24.17
2019-06-27T18:04:14.765Z,24.10
2019-06-27T18:06:41.104Z,24.13
2019-06-27T18:09:07.510Z,24.17
2019-06-27T18:11:33.887Z,24.16
2019-06-27T18:14:00.219Z,24.17
2019-06-27T18:16:26.558Z,24.09
2019-06-27T18:18:52.911Z,24.17
2019-06-27T18:21:19.243Z,24.19
2019-06-27T18:23:45.596Z,24.17
2019-06-27T18:26:11.944Z,24.10
2019-06-27T18:28:38.333Z,24.13
2019-06-27T18:31:04.683Z,24.19
2019-06-27T18:33:31.097Z,24.11
2019-06-27T18:35:57.500Z,24.18
2019-06-27T18:38:23.783Z,24.19
2019-06-27T18:40:50.160Z,24.15
2019-06-27T18:43:16.479Z,24.21
2019-06-27T18:45:42.864Z,24.15
2019-06-27T18:48:09.208Z,24.19
2019-06-27T18:50:35.604Z,24.17
2019-06-27T18:53:01.981Z,24.17
2019-06-27T18:55:28.324Z,24.23
2019-06-27T18:57:54.715Z,24.24
2019-06-27T19:02:47.462Z,24.29
2019-06-27T19:05:13.773Z,24.27
2019-06-27T19:07:45.753Z,24.30
2019-06-27T19:10:06.464Z,24.28
2019-06-27T19:12:32.802Z,24.35
2019-06-27T19:14:59.209Z,24.32
2019-06-27T19:17:26.803Z,24.34
2019-06-27T19:19:51.919Z,24.35
2019-06-27T19:22:18.352Z,24.39
2019-06-27T19:24:44.625Z,24.42
2019-06-27T19:27:11.023Z,24.40
2019-06-27T19:29:37.354Z,24.42
2019-06-27T19:32:03.685Z,24.43
2019-06-27T19:36:56.364Z,24.44
2019-06-27T19:39:22.695Z,24.47
2019-06-27T19:41:49.103Z,24.45
2019-06-27T19:44:15.373Z,24.46
2019-06-27T19:46:41.685Z,24.45
2019-06-27T19:49:08.025Z,24.46
2019-06-27T19:51:34.387Z,24.46
2019-06-27T19:54:00.740Z,24.45
2019-06-27T19:56:27.106Z,24.44
2019-06-27T19:58:53.392Z,24.47
2019-06-27T20:01:19.722Z,24.45
2019-06-27T20:03:46.098Z,24.45
2019-06-27T20:06:12.452Z,24.46
2019-06-27T20:11:07.914Z,24.46
2019-06-27T20:13:34.315Z,24.47
2019-06-27T20:16:00.611Z,24.42
2019-06-27T20:18:26.985Z,24.43
2019-06-27T20:20:53.274Z,24.43
2019-06-27T20:23:19.687Z,24.42
2019-06-27T20:25:46.011Z,24.41
2019-06-27T20:28:12.348Z,24.41
2019-06-27T20:30:38.744Z,24.43
2019-06-27T20:33:05.044Z,24.43
2019-06-27T20:35:31.405Z,24.43
2019-06-27T20:37:57.836Z,24.41
2019-06-27T20:40:24.134Z,24.42
2019-06-27T20:45:16.803Z,24.41
2019-06-27T20:47:43.139Z,24.38
2019-06-27T20:50:09.596Z,24.38
2019-06-27T20:52:37.824Z,24.39
2019-06-27T20:55:08.613Z,24.35
2019-06-27T20:57:33.771Z,24.39
2019-06-27T21:00:00.124Z,24.41
2019-06-27T21:02:26.437Z,24.35
2019-06-27T21:07:19.152Z,24.35
2019-06-27T21:09:45.479Z,24.39
2019-06-27T21:12:11.843Z,24.39
2019-06-27T21:14:38.245Z,24.36
2019-06-27T21:17:04.622Z,24.35
2019-06-27T21:19:30.959Z,24.33
2019-06-27T21:21:58.914Z,24.34
2019-06-27T21:24:23.640Z,24.31
2019-06-27T21:26:50.021Z,24.34
2019-06-27T21:29:17.177Z,24.31
2019-06-27T21:31:42.700Z,24.30
2019-06-27T21:34:09.049Z,24.31
2019-06-27T21:36:35.445Z,24.29
2019-06-27T21:39:07.704Z,24.31
2019-06-27T21:41:28.246Z,24.29
2019-06-27T21:43:54.588Z,24.32
2019-06-27T21:46:20.922Z,24.29
2019-06-27T21:48:47.324Z,24.30
2019-06-27T21:51:13.641Z,24.28
2019-06-27T21:53:39.984Z,24.27
2019-06-27T21:56:06.308Z,24.27
2019-06-27T21:58:32.672Z,24.28
2019-06-27T22:00:59.011Z,24.27
2019-06-27T22:03:25.367Z,24.30
2019-06-27T22:05:51.749Z,24.28
2019-06-27T22:08:18.102Z,24.25
2019-06-27T22:10:44.432Z,24.25
2019-06-27T22:13:10.909Z,24.20
2019-06-27T22:15:37.242Z,24.24
2019-06-27T22:18:03.597Z,24.21
2019-06-27T22:20:29.915Z,24.23
2019-06-27T22:22:56.277Z,24.16
2019-06-27T22:25:38.849Z,24.20
2019-06-27T22:27:49.017Z,24.24
2019-06-27T22:30:15.392Z,24.16
2019-06-27T22:32:41.704Z,24.21
2019-06-27T22:37:34.407Z,24.18
2019-06-27T22:40:00.899Z,24.19
2019-06-27T22:42:27.231Z,24.21
2019-06-27T22:44:53.573Z,24.17
2019-06-27T22:47:20.016Z,24.16
2019-06-27T22:49:46.391Z,24.17
2019-06-27T22:52:12.706Z,24.19
2019-06-27T22:54:39.032Z,24.15
2019-06-27T22:57:05.366Z,24.13
2019-06-27T22:59:31.751Z,24.17
2019-06-27T23:01:58.110Z,24.15
2019-06-27T23:04:24.486Z,24.15
2019-06-27T23:06:50.920Z,24.17
2019-06-27T23:11:43.588Z,24.16
2019-06-27T23:14:09.933Z,24.15
2019-06-27T23:16:36.313Z,24.15
2019-06-27T23:19:02.751Z,24.10
2019-06-27T23:21:29.106Z,24.15
2019-06-27T23:23:55.445Z,24.13
2019-06-27T23:26:21.796Z,24.10
2019-06-27T23:28:48.175Z,24.13
2019-06-27T23:31:14.608Z,24.13
2019-06-27T23:33:40.898Z,24.11
2019-06-27T23:36:07.275Z,24.05
2019-06-27T23:38:33.630Z,24.08
2019-06-27T23:41:00.001Z,24.12
2019-06-27T23:45:52.741Z,24.08
2019-06-27T23:48:19.124Z,24.12
2019-06-27T23:50:45.458Z,24.03
2019-06-27T23:53:11.792Z,24.11
2019-06-27T23:55:38.166Z,24.11
2019-06-27T23:58:04.584Z,24.05
